Time;durP1;ratioP1;P1;durP2;ratioP2;P2;SDS_P1;SDS_P2;PMS_P1;PMS_P2;Temp;Humidity;BMP_temperature;BMP_pressure;BME280_temperature;BME280_humidity;BME280_pressure;Samples;Min_cycle;Max_cycle;Signal;HPM_P1;HPM_P2
2021/12/13 00:01:01;;;;;;;3.05;2.42;;;;;;;0.74;66.57;101641.78;2090260;28;20249;-70
2021/12/13 00:02:15;;;;;;;4.80;2.88;;;;;;;1.30;66.44;101719.84;2088682;28;20188;-70
2021/12/13 00:03:29;;;;;;;4.60;2.53;;;;;;;1.38;66.63;101738.03;2089515;28;20251;-69
2021/12/13 00:04:38;;;;;;;3.22;2.45;;;;;;;1.35;66.30;101736.00;2090086;28;20627;-70
2021/12/13 00:05:51;;;;;;;3.70;2.67;;;;;;;1.32;66.73;101736.72;2089970;28;20192;-70
2021/12/13 00:06:56;;;;;;;3.00;2.38;;;;;;;1.26;67.31;101738.91;2090148;28;20172;-70
2021/12/13 00:08:02;;;;;;;3.55;2.78;;;;;;;1.12;67.34;101741.28;2090097;28;20181;-70
2021/12/13 00:09:16;;;;;;;3.40;2.72;;;;;;;0.96;67.58;101707.66;2090214;28;20603;-70
2021/12/13 00:10:21;;;;;;;3.45;2.40;;;;;;;1.25;67.02;101742.81;2087879;28;20199;-70
2021/12/13 00:11:28;;;;;;;3.10;2.70;;;;;;;1.17;67.03;101743.75;2089939;28;20189;-69
2021/12/13 00:12:34;;;;;;;3.58;2.47;;;;;;;0.77;67.47;101684.88;2089082;28;20156;-70
2021/12/13 00:13:58;;;;;;;3.67;2.60;;;;;;;1.09;67.63;101747.47;2089974;28;20215;-69
2021/12/13 00:15:00;;;;;;;3.28;2.70;;;;;;;1.08;67.98;101742.34;2090358;28;20161;-70
2021/12/13 00:16:04;;;;;;;3.78;2.80;;;;;;;1.08;67.61;101745.88;2089904;28;20248;-70
2021/12/13 00:17:15;;;;;;;3.60;2.90;;;;;;;0.65;67.41;101679.44;2089818;28;20191;-70
2021/12/13 00:18:22;;;;;;;3.05;2.58;;;;;;;1.02;67.74;101741.81;2089895;28;20382;-70
2021/12/13 00:19:31;;;;;;;3.35;2.80;;;;;;;1.01;68.14;101756.63;2090046;28;20161;-70
2021/12/13 00:20:39;;;;;;;3.30;2.58;;;;;;;0.98;67.88;101749.16;2090154;28;20149;-70
2021/12/13 00:21:44;;;;;;;4.28;2.78;;;;;;;0.94;68.42;101761.13;2089876;28;20158;-70
2021/12/13 00:22:49;;;;;;;4.30;3.03;;;;;;;0.16;68.73;101653.50;2089238;28;20553;-70
2021/12/13 00:23:55;;;;;;;2.95;2.40;;;;;;;0.88;68.69;101746.91;2089854;28;20176;-70
2021/12/13 00:25:03;;;;;;;3.88;2.65;;;;;;;0.79;68.45;101740.00;2089763;28;20166;-70
2021/12/13 00:26:05;;;;;;;3.70;2.60;;;;;;;0.72;68.83;101737.84;2097460;28;20270;-70
2021/12/13 00:27:19;;;;;;;3.67;2.80;;;;;;;0.82;69.11;101753.00;2097397;28;20677;-70
2021/12/13 00:28:21;;;;;;;3.63;2.53;;;;;;;0.38;68.67;101683.00;2090123;28;20168;-70
2021/12/13 00:29:25;;;;;;;3.38;2.60;;;;;;;0.70;68.73;101733.88;2089924;28;20646;-70
2021/12/13 00:30:25;;;;;;;3.10;2.78;;;;;;;0.77;68.96;101748.56;2089756;28;20697;-70
2021/12/13 00:31:40;;;;;;;3.90;2.73;;;;;;;0.48;69.19;101716.13;2089864;28;20570;-70
2021/12/13 00:32:54;;;;;;;3.20;2.80;;;;;;;0.67;69.22;101748.28;2089196;28;20193;-70
2021/12/13 00:34:02;;;;;;;3.38;2.75;;;;;;;0.68;69.49;101739.72;2089810;28;20539;-70
2021/12/13 00:35:08;;;;;;;3.38;2.70;;;;;;;0.56;69.42;101704.22;2089647;28;20303;-70
2021/12/13 00:36:28;;;;;;;3.35;2.80;;;;;;;0.61;68.84;101727.78;2089457;28;20638;-70
2021/12/13 00:37:39;;;;;;;3.08;2.60;;;;;;;0.75;69.04;101745.38;2089821;28;20338;-70
2021/12/13 00:38:51;;;;;;;4.03;3.00;;;;;;;0.35;68.89;101684.50;2089897;28;20157;-70
2021/12/13 00:39:57;;;;;;;4.18;3.05;;;;;;;0.73;69.22;101739.47;2089797;28;20164;-70
2021/12/13 00:41:07;;;;;;;4.25;3.30;;;;;;;0.72;68.90;101737.84;2089840;28;20165;-70
2021/12/13 00:42:08;;;;;;;4.82;3.50;;;;;;;0.22;68.91;101663.03;2089507;28;20652;-70
2021/12/13 00:43:21;;;;;;;5.70;4.17;;;;;;;0.73;68.91;101742.22;2089389;28;20528;-70
2021/12/13 00:44:37;;;;;;;6.90;5.00;;;;;;;0.62;69.22;101743.84;2089885;28;20165;-70
2021/12/13 00:46:05;;;;;;;7.93;6.22;;;;;;;0.01;68.95;101646.03;2089665;28;20241;-70
2021/12/13 00:47:12;;;;;;;9.55;6.72;;;;;;;0.47;69.73;101720.00;2089341;28;20192;-70
2021/12/13 00:48:14;;;;;;;7.85;5.65;;;;;;;0.64;69.66;101748.97;2089583;28;20160;-70
2021/12/13 00:49:16;;;;;;;10.07;6.32;;;;;;;0.16;69.72;101681.63;2089678;28;20568;-70
2021/12/13 00:50:25;;;;;;;8.45;6.32;;;;;;;0.46;69.82;101732.06;2089792;28;20184;-70
2021/12/13 00:51:29;;;;;;;8.10;5.80;;;;;;;0.65;69.54;101745.88;2089830;28;20530;-70
2021/12/13 00:52:33;;;;;;;8.20;6.10;;;;;;;0.71;69.91;101740.97;2088958;28;20420;-70
2021/12/13 00:53:37;;;;;;;10.40;6.07;;;;;;;0.72;69.51;101746.06;2089625;28;20180;-70
2021/12/13 00:54:39;;;;;;;7.72;6.00;;;;;;;0.63;69.94;101731.78;2097385;28;20179;-70
2021/12/13 00:55:40;;;;;;;8.55;6.00;;;;;;;0.00;69.69;101661.63;2097092;28;20186;-70
2021/12/13 00:57:02;;;;;;;7.87;5.93;;;;;;;0.66;69.63;101754.88;2089105;28;20230;-70
2021/12/13 00:58:15;;;;;;;9.23;6.63;;;;;;;0.63;69.72;101744.63;2088880;28;20724;-70
2021/12/13 00:59:38;;;;;;;9.13;6.88;;;;;;;0.56;70.21;101744.44;2089270;28;20187;-70
2021/12/13 01:00:46;;;;;;;9.20;6.80;;;;;;;0.56;69.79;101744.44;2089562;28;20183;-70
2021/12/13 01:01:57;;;;;;;8.57;6.63;;;;;;;0.51;70.39;101736.50;2089677;28;20204;-70
2021/12/13 01:03:03;;;;;;;8.57;6.28;;;;;;;0.43;70.44;101746.44;2089243;28;20203;-70
2021/12/13 01:04:09;;;;;;;8.93;6.40;;;;;;;0.47;70.22;101741.06;2089554;28;20222;-69
2021/12/13 01:05:42;;;;;;;8.65;6.50;;;;;;;0.49;70.86;101738.75;2094544;28;20699;-70
2021/12/13 01:07:36;;;;;;;8.18;5.93;;;;;;;0.43;70.48;101748.34;2089460;28;20215;-69
2021/12/13 01:09:01;;;;;;;8.45;6.00;;;;;;;0.39;70.55;101740.06;2064213;28;20204;-70
2021/12/13 01:10:38;;;;;;;9.85;5.97;;;;;;;0.37;71.03;101739.63;2063853;28;20256;-70
2021/12/13 01:11:57;;;;;;;7.10;5.13;;;;;;;0.33;71.15;101741.44;2064012;28;20178;-70
2021/12/13 01:13:00;;;;;;;7.75;5.55;;;;;;;0.29;71.09;101745.22;2063287;28;20162;-70
2021/12/13 01:14:28;;;;;;;7.43;5.40;;;;;;;0.33;70.74;101744.19;2067712;28;20182;-70
2021/12/13 01:15:43;;;;;;;6.20;4.78;;;;;;;0.31;70.77;101743.72;2080702;28;20169;-70
2021/12/13 01:17:07;;;;;;;7.45;5.43;;;;;;;-0.02;70.42;101685.75;2080963;28;20188;-70
2021/12/13 01:18:36;;;;;;;7.85;5.55;;;;;;;0.29;71.01;101748.75;2081271;28;20235;-70
2021/12/13 01:19:56;;;;;;;7.72;6.05;;;;;;;0.37;70.53;101745.09;2081069;28;20244;-70
2021/12/13 01:21:17;;;;;;;9.68;6.53;;;;;;;0.27;70.79;101744.78;2081404;28;20251;-70
2021/12/13 01:23:46;;;;;;;8.98;6.78;;;;;;;-0.32;71.10;101629.06;2081339;28;20695;-70
2021/12/13 01:26:03;;;;;;;8.23;6.20;;;;;;;0.50;70.86;101745.84;2081274;28;20188;-70
2021/12/13 01:27:03;;;;;;;7.10;5.80;;;;;;;0.14;70.08;101692.09;2081346;28;20161;-70
2021/12/13 01:28:20;;;;;;;8.80;6.20;;;;;;;0.48;70.40;101750.84;2081142;28;20184;-70
2021/12/13 01:29:27;;;;;;;9.07;6.43;;;;;;;0.43;71.04;101745.63;2081131;28;20176;-70
2021/12/13 01:30:35;;;;;;;8.43;6.53;;;;;;;0.37;70.50;101739.63;2081058;28;20158;-70
2021/12/13 01:31:59;;;;;;;9.07;6.53;;;;;;;0.44;70.73;101750.75;2081125;28;20180;-70
2021/12/13 01:33:04;;;;;;;7.25;5.68;;;;;;;0.27;71.08;101740.13;2079937;28;20171;-70
2021/12/13 01:34:06;;;;;;;7.32;5.70;;;;;;;0.33;70.75;101757.84;2080501;28;20177;-69
2021/12/13 01:35:15;;;;;;;8.02;6.22;;;;;;;0.32;70.98;101752.72;2080353;28;20236;-70
2021/12/13 01:36:26;;;;;;;7.85;5.90;;;;;;;0.25;71.19;101747.84;2080446;28;20566;-70
2021/12/13 01:37:30;;;;;;;6.88;5.15;;;;;;;0.26;70.98;101741.22;2081052;28;20530;-70
2021/12/13 01:38:36;;;;;;;6.55;5.00;;;;;;;0.27;71.05;101742.84;2080455;28;20200;-70
2021/12/13 01:39:40;;;;;;;6.57;5.00;;;;;;;0.33;70.99;101746.09;2080470;28;20201;-70
2021/12/13 01:40:50;;;;;;;6.57;5.20;;;;;;;0.11;71.11;101709.19;2081213;28;20181;-70
2021/12/13 01:42:00;;;;;;;6.88;4.85;;;;;;;0.24;71.08;101729.84;2081083;28;20222;-69
2021/12/13 01:43:11;;;;;;;6.65;4.90;;;;;;;0.26;71.61;101743.19;2080507;28;20165;-70
2021/12/13 01:44:14;;;;;;;7.93;5.18;;;;;;;0.28;70.89;101740.88;2081159;28;20184;-70
2021/12/13 01:45:15;;;;;;;5.55;4.60;;;;;;;0.25;71.54;101741.59;2081095;28;20547;-70
2021/12/13 01:46:19;;;;;;;5.53;4.40;;;;;;;0.31;71.09;101735.53;2080350;28;20207;-70
2021/12/13 01:47:34;;;;;;;6.25;4.90;;;;;;;0.36;71.06;101732.53;2080552;28;20647;-70
2021/12/13 01:48:41;;;;;;;7.90;5.38;;;;;;;0.38;71.29;101734.94;2080324;28;20924;-70
2021/12/13 01:49:47;;;;;;;6.50;4.88;;;;;;;0.47;70.93;101735.59;2072860;28;20594;-70
2021/12/13 01:50:53;;;;;;;6.18;4.68;;;;;;;0.51;70.92;101722.81;2072880;28;20205;-70
2021/12/13 01:51:56;;;;;;;5.72;4.45;;;;;;;0.61;70.27;101734.03;2080218;28;20751;-70
2021/12/13 01:53:00;;;;;;;7.28;4.85;;;;;;;0.55;70.26;101729.97;2080273;28;20658;-70
2021/12/13 01:54:07;;;;;;;6.28;4.40;;;;;;;0.74;69.78;101737.50;2080969;28;20230;-70
2021/12/13 01:55:21;;;;;;;5.82;4.50;;;;;;;0.44;69.50;101671.47;2081131;28;20170;-70
2021/12/13 01:56:39;;;;;;;6.38;4.63;;;;;;;0.85;69.61;101731.19;2081182;28;20165;-70
2021/12/13 01:57:46;;;;;;;4.88;3.90;;;;;;;0.74;69.28;101704.69;2080767;28;20624;-70
2021/12/13 01:58:47;;;;;;;7.30;4.47;;;;;;;0.98;68.88;101730.00;2081323;28;20254;-70
2021/12/13 02:00:07;;;;;;;5.63;4.43;;;;;;;1.05;68.65;101724.69;2088416;28;20275;-70
2021/12/13 02:01:19;;;;;;;5.25;3.75;;;;;;;1.10;68.35;101724.44;2086135;28;20206;-70
2021/12/13 02:02:37;;;;;;;4.68;3.70;;;;;;;1.06;68.42;101723.53;2080181;28;20168;-70
2021/12/13 02:03:40;;;;;;;5.38;4.25;;;;;;;1.07;69.05;101724.34;2088459;28;20176;-70
2021/12/13 02:04:43;;;;;;;6.25;3.70;;;;;;;0.64;68.71;101659.53;2088351;28;20182;-70
2021/12/13 02:05:46;;;;;;;5.57;3.60;;;;;;;0.41;68.47;101633.13;2087479;28;20235;-70
2021/12/13 02:06:50;;;;;;;5.50;3.90;;;;;;;0.78;68.57;101680.97;2089260;28;20267;-70
2021/12/13 02:08:02;;;;;;;5.82;3.90;;;;;;;1.20;68.08;101745.00;2089155;28;20184;-70
2021/12/13 02:09:17;;;;;;;6.35;3.67;;;;;;;1.18;68.60;101731.66;2096879;28;20198;-70
2021/12/13 02:10:25;;;;;;;5.53;3.88;;;;;;;1.15;68.47;101737.06;2094680;28;20195;-70
2021/12/13 02:11:29;;;;;;;5.28;3.75;;;;;;;1.08;68.67;101723.19;2088437;28;20188;-70
2021/12/13 02:12:33;;;;;;;5.47;3.60;;;;;;;0.87;68.50;101681.63;2079536;28;20196;-70
2021/12/13 02:13:42;;;;;;;5.03;3.67;;;;;;;1.23;68.21;101745.09;2087905;28;20219;-70
2021/12/13 02:14:48;;;;;;;4.45;3.30;;;;;;;1.25;67.99;101731.88;2080992;28;20199;-70
2021/12/13 02:17:22;;;;;;;5.57;3.63;;;;;;;1.30;67.99;101726.13;2080905;28;20173;-70
2021/12/13 02:18:26;;;;;;;4.97;3.60;;;;;;;1.30;67.49;101728.84;2080842;28;20608;-70
2021/12/13 02:19:38;;;;;;;4.88;3.63;;;;;;;1.26;67.70;101710.75;2080827;28;20185;-70
2021/12/13 02:20:43;;;;;;;4.80;3.80;;;;;;;1.25;67.78;101715.44;2080965;28;20169;-70
2021/12/13 02:21:50;;;;;;;4.38;3.42;;;;;;;1.38;67.29;101732.56;2080706;28;20195;-70
2021/12/13 02:22:53;;;;;;;4.82;3.60;;;;;;;1.36;67.44;101746.59;2080095;28;20169;-70
2021/12/13 02:24:01;;;;;;;4.70;3.60;;;;;;;0.86;66.99;101666.34;2080544;28;20189;-70
2021/12/13 02:25:29;;;;;;;4.57;3.63;;;;;;;1.32;67.02;101723.03;2080731;28;20165;-70
2021/12/13 02:26:31;;;;;;;4.95;3.45;;;;;;;1.41;66.88;101734.59;2080892;28;20162;-70
2021/12/13 02:27:36;;;;;;;4.30;3.47;;;;;;;1.47;66.61;101739.44;2080719;28;20528;-70
2021/12/13 02:28:39;;;;;;;5.63;3.40;;;;;;;1.45;66.49;101739.00;2081045;28;20252;-70
2021/12/13 02:29:42;;;;;;;3.97;3.33;;;;;;;1.29;66.48;101719.06;2080759;28;20557;-70
2021/12/13 02:31:07;;;;;;;6.47;4.03;;;;;;;1.48;67.07;101743.00;2080814;28;20663;-70
2021/12/13 02:32:10;;;;;;;4.63;3.22;;;;;;;1.51;66.28;101737.59;2080426;28;20631;-70
2021/12/13 02:33:15;;;;;;;4.38;3.08;;;;;;;1.12;66.84;101688.50;2080467;28;20253;-70
2021/12/13 02:34:18;;;;;;;4.15;3.20;;;;;;;1.05;66.32;101667.22;2088289;28;20193;-70
2021/12/13 02:35:22;;;;;;;5.28;3.65;;;;;;;1.57;66.78;101746.31;2088175;28;20201;-70
2021/12/13 02:36:37;;;;;;;5.82;3.42;;;;;;;1.55;66.01;101748.63;2080727;28;20173;-70
2021/12/13 02:37:40;;;;;;;4.45;3.38;;;;;;;1.55;66.51;101745.88;2080678;28;20177;-70
2021/12/13 02:38:42;;;;;;;4.75;3.53;;;;;;;1.31;66.39;101719.50;2088331;28;20184;-70
2021/12/13 02:39:53;;;;;;;3.92;3.25;;;;;;;1.54;66.49;101758.00;2087972;28;20492;-70
2021/12/13 02:40:54;;;;;;;5.20;3.60;;;;;;;1.35;66.42;101733.25;2088306;28;20181;-70
2021/12/13 02:41:57;;;;;;;4.10;3.13;;;;;;;1.52;66.84;101768.50;2088273;28;20643;-70
2021/12/13 02:42:58;;;;;;;4.60;3.47;;;;;;;1.51;66.39;101758.69;2087603;28;20225;-70
2021/12/13 02:44:05;;;;;;;7.00;3.47;;;;;;;1.23;66.75;101708.72;2088303;28;20536;-69
2021/12/13 02:45:14;;;;;;;5.07;3.47;;;;;;;1.16;66.53;101695.66;2080741;28;20165;-70
2021/12/13 02:46:15;;;;;;;4.25;3.28;;;;;;;1.33;66.41;101746.53;2080764;28;20189;-70
2021/12/13 02:47:38;;;;;;;4.95;3.58;;;;;;;1.51;66.41;101747.75;2080678;28;20498;-69
2021/12/13 02:48:48;;;;;;;4.45;3.42;;;;;;;1.36;66.53;101730.19;2080663;28;20190;-70
2021/12/13 02:49:50;;;;;;;5.28;3.83;;;;;;;1.51;67.08;101751.28;2080702;28;20182;-70
2021/12/13 02:50:57;;;;;;;5.32;3.70;;;;;;;1.50;66.60;101757.91;2080726;28;20261;-70
2021/12/13 02:52:01;;;;;;;5.45;3.30;;;;;;;1.52;66.52;101758.34;2080602;28;20217;-70
2021/12/13 02:53:03;;;;;;;4.05;3.20;;;;;;;1.54;67.13;101758.78;2087626;28;20673;-70
2021/12/13 02:54:11;;;;;;;5.10;4.00;;;;;;;0.88;66.71;101656.66;2087827;28;20526;-70
2021/12/13 02:55:22;;;;;;;4.57;3.65;;;;;;;1.50;66.62;101746.16;2080701;28;20162;-70
2021/12/13 02:56:27;;;;;;;4.88;3.75;;;;;;;1.14;66.72;101688.94;2080399;28;20177;-70
2021/12/13 02:57:32;;;;;;;5.30;3.60;;;;;;;1.23;67.12;101709.50;2088161;28;20613;-69
2021/12/13 02:58:36;;;;;;;4.75;3.45;;;;;;;1.07;66.27;101681.34;2096477;28;20362;-70
2021/12/13 02:59:46;;;;;;;5.10;3.67;;;;;;;1.63;66.66;101761.34;2088142;28;20196;-70
2021/12/13 03:01:12;;;;;;;3.70;3.17;;;;;;;1.64;66.54;101757.47;2088453;28;20665;-70
2021/12/13 03:02:21;;;;;;;3.90;3.10;;;;;;;1.66;66.89;101763.38;2085299;28;20188;-70
2021/12/13 03:03:30;;;;;;;6.25;3.70;;;;;;;1.61;66.42;101755.41;2096489;28;20214;-70
2021/12/13 03:04:31;;;;;;;4.53;3.53;;;;;;;0.82;66.26;101647.09;2095592;28;20230;-70
2021/12/13 03:05:40;;;;;;;6.53;3.30;;;;;;;1.70;66.19;101770.53;2088816;28;20193;-70
2021/12/13 03:06:48;;;;;;;5.43;3.88;;;;;;;0.73;66.36;101613.66;2096670;28;20187;-70
2021/12/13 03:07:51;;;;;;;5.25;3.88;;;;;;;1.75;65.92;101769.47;2095595;28;20226;-70
2021/12/13 03:09:00;;;;;;;4.75;3.63;;;;;;;1.74;65.44;101770.63;2096470;28;20364;-70
2021/12/13 03:10:08;;;;;;;5.55;3.80;;;;;;;1.72;65.23;101776.44;2095421;28;20168;-70
2021/12/13 03:11:21;;;;;;;4.15;3.17;;;;;;;1.67;65.84;101775.91;2088924;28;20208;-70
2021/12/13 03:12:25;;;;;;;5.85;3.70;;;;;;;1.63;66.09;101767.63;2087980;28;20172;-70
2021/12/13 03:13:26;;;;;;;5.30;3.85;;;;;;;1.68;66.33;101772.03;2088822;28;20184;-70
2021/12/13 03:14:32;;;;;;;6.47;3.90;;;;;;;1.70;66.16;101778.75;2088911;28;20188;-70
2021/12/13 03:15:34;;;;;;;9.00;3.58;;;;;;;1.68;65.90;101783.78;2088755;28;20174;-70
2021/12/13 03:17:02;;;;;;;7.82;4.22;;;;;;;1.59;65.81;101774.16;2088979;28;20180;-70
2021/12/13 03:18:19;;;;;;;4.78;3.45;;;;;;;1.66;65.83;101788.84;2090149;28;20174;-70
2021/12/13 03:19:38;;;;;;;7.72;3.90;;;;;;;1.65;65.71;101775.47;2090752;28;20434;-70
2021/12/13 03:21:06;;;;;;;5.65;3.80;;;;;;;1.64;66.29;101771.16;2090578;28;20184;-70
2021/12/13 03:22:40;;;;;;;3.88;3.08;;;;;;;1.68;65.79;101774.78;2090027;28;20589;-70
2021/12/13 03:23:55;;;;;;;10.13;3.80;;;;;;;1.62;65.42;101767.97;2090314;28;20252;-70
2021/12/13 03:25:27;;;;;;;4.15;2.90;;;;;;;0.72;65.99;101644.09;2090135;28;20243;-70
2021/12/13 03:26:43;;;;;;;6.05;3.05;;;;;;;1.00;65.90;101683.91;2090505;28;20177;-70
2021/12/13 03:28:10;;;;;;;5.80;2.97;;;;;;;1.20;65.93;101740.34;2090370;28;20607;-70
2021/12/13 03:29:23;;;;;;;5.28;3.45;;;;;;;1.24;66.04;101724.81;2090446;28;20161;-70
2021/12/13 03:30:32;;;;;;;6.13;3.63;;;;;;;1.19;65.77;101727.81;2097847;28;20199;-70
2021/12/13 03:31:38;;;;;;;6.28;4.00;;;;;;;1.56;65.38;101783.06;2089795;28;20182;-70
2021/12/13 03:33:04;;;;;;;5.10;3.22;;;;;;;1.53;65.68;101781.84;2089195;28;20175;-70
2021/12/13 03:34:13;;;;;;;6.72;3.58;;;;;;;1.32;65.97;101756.66;2090367;28;20184;-70
2021/12/13 03:35:21;;;;;;;5.28;3.35;;;;;;;1.48;65.82;101784.06;2090244;28;20227;-70
2021/12/13 03:36:37;;;;;;;5.65;3.65;;;;;;;1.39;65.96;101778.78;2090315;28;20243;-70
2021/12/13 03:37:40;;;;;;;6.93;3.83;;;;;;;1.03;65.96;101726.19;2090026;28;20180;-70
2021/12/13 03:38:45;;;;;;;5.53;3.70;;;;;;;1.42;65.79;101789.00;2090374;28;20181;-70
2021/12/13 03:39:59;;;;;;;5.55;3.50;;;;;;;1.45;65.91;101782.03;2090380;28;20169;-70
2021/12/13 03:41:09;;;;;;;6.13;3.63;;;;;;;1.43;65.75;101787.84;2090416;28;20158;-70
2021/12/13 03:42:39;;;;;;;5.70;3.80;;;;;;;1.42;65.92;101782.75;2089763;28;20168;-70
2021/12/13 03:43:48;;;;;;;7.93;3.92;;;;;;;1.40;66.08;101788.56;2090127;28;20164;-70
2021/12/13 03:44:51;;;;;;;9.90;3.67;;;;;;;1.22;65.86;101764.63;2090415;28;20165;-70
2021/12/13 03:45:55;;;;;;;5.97;3.95;;;;;;;1.36;66.11;101795.06;2097639;28;20709;-70
2021/12/13 03:47:07;;;;;;;9.13;3.70;;;;;;;1.36;65.94;101795.06;2097631;28;20260;-70
2021/12/13 03:48:13;;;;;;;5.25;3.42;;;;;;;1.35;65.86;101797.03;2090159;28;20156;-70
2021/12/13 03:49:15;;;;;;;5.43;3.38;;;;;;;1.36;66.26;101792.34;2090291;28;20173;-70
2021/12/13 03:50:27;;;;;;;5.30;3.58;;;;;;;1.32;66.09;101797.72;2090188;28;20168;-70
2021/12/13 03:51:32;;;;;;;4.00;3.00;;;;;;;1.24;65.75;101789.69;2090419;28;20223;-70
2021/12/13 03:52:34;;;;;;;4.60;3.40;;;;;;;1.31;65.88;101800.81;2089443;28;20553;-70
2021/12/13 03:53:36;;;;;;;5.03;3.72;;;;;;;0.85;65.95;101725.72;2090157;28;20191;-70
2021/12/13 03:54:40;;;;;;;5.60;3.28;;;;;;;1.31;66.16;101801.63;2090469;28;20684;-71
2021/12/13 03:55:45;;;;;;;3.92;3.10;;;;;;;0.83;66.13;101732.69;2090193;28;20181;-70
2021/12/13 03:56:49;;;;;;;4.97;3.50;;;;;;;1.26;66.23;101799.16;2090407;28;20182;-70
2021/12/13 03:57:54;;;;;;;5.50;3.33;;;;;;;1.11;65.88;101777.22;2089896;28;20179;-70
2021/12/13 03:59:03;;;;;;;4.72;3.03;;;;;;;1.28;66.54;101799.56;2090453;28;20226;-70
2021/12/13 04:00:05;;;;;;;5.20;3.40;;;;;;;0.67;66.06;101704.53;2090329;28;20165;-70
2021/12/13 04:01:14;;;;;;;6.75;3.22;;;;;;;1.31;66.37;101800.81;2098094;28;20263;-70
2021/12/13 04:02:22;;;;;;;4.72;3.05;;;;;;;1.23;66.16;101796.31;2096653;28;20163;-70
2021/12/13 04:03:25;;;;;;;4.45;2.97;;;;;;;1.27;66.33;101802.69;2090472;28;20215;-70
2021/12/13 04:04:31;;;;;;;5.15;3.05;;;;;;;0.85;66.23;101747.59;2089714;28;20240;-70
2021/12/13 04:05:32;;;;;;;4.15;2.80;;;;;;;1.22;66.71;101797.47;2089732;28;20659;-70
2021/12/13 04:06:36;;;;;;;5.60;3.50;;;;;;;0.17;65.88;101623.09;2090562;28;20187;-70
2021/12/13 04:07:43;;;;;;;4.35;3.20;;;;;;;1.20;66.63;101788.78;2090247;28;20211;-70
2021/12/13 04:08:46;;;;;;;7.10;3.13;;;;;;;1.15;65.59;101789.06;2098056;28;20175;-70
2021/12/13 04:09:50;;;;;;;5.03;3.20;;;;;;;1.01;65.87;101791.44;2097705;28;20173;-70
2021/12/13 04:11:03;;;;;;;4.25;3.40;;;;;;;1.10;65.57;101781.09;2090303;28;20183;-70
2021/12/13 04:12:07;;;;;;;4.55;2.97;;;;;;;1.12;66.15;101798.75;2090214;28;20169;-70
2021/12/13 04:13:13;;;;;;;4.03;2.58;;;;;;;1.07;66.28;101800.97;2090272;28;20738;-70
2021/12/13 04:14:23;;;;;;;4.35;3.10;;;;;;;0.70;66.76;101737.44;2090591;28;20208;-70
2021/12/13 04:15:28;;;;;;;5.45;3.17;;;;;;;1.06;66.25;101797.44;2090553;28;20158;-70
2021/12/13 04:17:01;;;;;;;4.10;2.70;;;;;;;1.07;66.36;101795.50;2090447;28;20160;-70
2021/12/13 04:18:15;;;;;;;3.30;2.72;;;;;;;1.06;66.86;101796.66;2097937;28;20177;-70
2021/12/13 04:19:25;;;;;;;4.38;3.10;;;;;;;0.58;66.78;101723.00;2096580;28;20566;-70
2021/12/13 04:20:36;;;;;;;3.60;2.60;;;;;;;1.07;66.62;101790.81;2089760;28;20196;-70
2021/12/13 04:21:45;;;;;;;4.07;3.00;;;;;;;1.08;66.43;101788.88;2089784;28;20193;-70
2021/12/13 04:22:50;;;;;;;3.65;2.80;;;;;;;0.35;66.17;101684.50;2089703;28;20670;-70
2021/12/13 04:23:55;;;;;;;4.47;2.95;;;;;;;1.01;66.93;101792.22;2090463;28;20708;-70
2021/12/13 04:25:17;;;;;;;4.00;3.08;;;;;;;0.51;66.90;101715.41;2090352;28;20718;-70
2021/12/13 04:26:19;;;;;;;3.53;2.80;;;;;;;1.04;66.78;101787.97;2090447;28;20224;-70
2021/12/13 04:27:48;;;;;;;3.40;2.78;;;;;;;1.05;66.95;101786.81;2090347;28;20191;-70
2021/12/13 04:28:51;;;;;;;3.85;2.75;;;;;;;1.06;66.50;101786.47;2090017;28;20170;-70
2021/12/13 04:29:59;;;;;;;3.42;2.45;;;;;;;0.98;66.52;101779.25;2097848;28;20212;-70
2021/12/13 04:31:06;;;;;;;4.28;2.50;;;;;;;0.83;66.27;101749.91;2089662;28;20360;-70
2021/12/13 04:32:21;;;;;;;4.25;2.75;;;;;;;1.16;66.10;101790.63;2089702;28;20251;-70
2021/12/13 04:33:33;;;;;;;3.22;2.50;;;;;;;1.19;66.28;101807.19;2089601;28;20258;-70
2021/12/13 04:34:41;;;;;;;3.92;2.67;;;;;;;1.17;66.22;101820.41;2089743;28;20245;-70
2021/12/13 04:35:45;;;;;;;3.40;2.53;;;;;;;1.08;66.38;101786.91;2089698;28;20837;-70
2021/12/13 04:36:50;;;;;;;7.90;3.08;;;;;;;1.22;66.52;101792.00;2089802;28;20675;-70
2021/12/13 04:37:55;;;;;;;4.18;2.60;;;;;;;1.27;66.24;101798.00;2090344;28;20188;-70
2021/12/13 04:39:30;;;;;;;2.85;2.25;;;;;;;1.29;65.84;101790.25;2089684;28;20187;-70
2021/12/13 04:40:35;;;;;;;2.97;2.40;;;;;;;0.77;66.35;101734.09;2089876;28;20180;-70
2021/12/13 04:42:00;;;;;;;4.65;2.70;;;;;;;1.29;65.98;101797.66;2090369;28;20564;-70
2021/12/13 04:43:00;;;;;;;4.45;2.50;;;;;;;1.30;66.44;101794.56;2090129;28;20226;-71
2021/12/13 04:44:08;;;;;;;3.10;2.50;;;;;;;1.26;65.76;101790.94;2097760;28;20207;-70
2021/12/13 04:45:14;;;;;;;3.33;2.38;;;;;;;1.31;66.27;101798.06;2097031;28;20647;-71
2021/12/13 04:46:18;;;;;;;5.63;2.97;;;;;;;1.36;65.44;101811.50;2097778;28;20215;-70
2021/12/13 04:47:33;;;;;;;3.10;2.30;;;;;;;1.39;65.52;101795.19;2097365;28;20210;-71
2021/12/13 04:48:34;;;;;;;2.25;2.05;;;;;;;1.13;66.06;101755.78;2090375;28;20252;-70
2021/12/13 04:49:38;;;;;;;2.63;2.10;;;;;;;1.34;65.95;101803.66;2090118;28;20456;-71
2021/12/13 04:50:48;;;;;;;3.38;2.50;;;;;;;1.34;65.82;101794.66;2090310;28;20230;-70
2021/12/13 04:51:59;;;;;;;2.97;2.22;;;;;;;1.31;65.92;101796.16;2090306;28;20234;-71
2021/12/13 04:53:02;;;;;;;2.30;1.80;;;;;;;1.00;65.67;101737.81;2090164;28;20175;-71
2021/12/13 04:54:05;;;;;;;2.67;2.10;;;;;;;1.35;66.15;101797.03;2090227;28;20179;-70
2021/12/13 04:55:12;;;;;;;2.58;2.08;;;;;;;1.33;66.18;101791.09;2089342;28;20310;-70
2021/12/13 04:56:18;;;;;;;2.83;2.10;;;;;;;1.33;66.04;101796.56;2089540;28;20167;-71
2021/12/13 04:57:19;;;;;;;2.65;2.08;;;;;;;0.84;66.23;101729.63;2089344;28;20230;-71
2021/12/13 04:58:21;;;;;;;2.20;1.80;;;;;;;0.79;65.96;101707.97;2089727;28;20245;-71
2021/12/13 04:59:22;;;;;;;3.67;2.15;;;;;;;0.75;66.47;101731.69;2088892;28;20184;-71
2021/12/13 05:00:26;;;;;;;2.90;1.90;;;;;;;1.04;66.34;101742.28;2089393;28;20176;-71
2021/12/13 05:01:28;;;;;;;3.33;2.20;;;;;;;1.37;65.98;101793.94;2088662;28;20200;-71
2021/12/13 05:02:29;;;;;;;2.55;1.85;;;;;;;1.19;66.16;101757.91;2090452;28;20215;-71
2021/12/13 05:03:35;;;;;;;2.47;1.90;;;;;;;1.12;65.89;101757.72;2089533;28;20177;-71
2021/12/13 05:04:36;;;;;;;3.85;1.98;;;;;;;1.34;66.33;101794.66;2081664;28;20173;-71
2021/12/13 05:05:38;;;;;;;4.78;1.92;;;;;;;1.34;66.33;101795.44;2081700;28;20729;-71
2021/12/13 05:06:40;;;;;;;2.72;1.85;;;;;;;1.34;66.07;101798.19;2081786;28;20182;-71
2021/12/13 05:07:44;;;;;;;2.97;2.08;;;;;;;1.28;66.42;101802.31;2089261;28;20191;-71
2021/12/13 05:08:48;;;;;;;3.85;2.17;;;;;;;1.31;66.24;101801.63;2095809;28;20191;-71
2021/12/13 05:09:49;;;;;;;3.40;2.45;;;;;;;1.06;66.41;101761.84;2089472;28;20187;-71
2021/12/13 05:10:50;;;;;;;2.67;2.00;;;;;;;0.88;66.36;101729.69;2089140;28;20185;-71
2021/12/13 05:12:02;;;;;;;3.20;1.80;;;;;;;1.33;66.58;101788.38;2089361;28;20214;-71
2021/12/13 05:13:12;;;;;;;3.92;1.88;;;;;;;1.31;66.55;101792.59;2096849;28;20631;-71
2021/12/13 05:14:14;;;;;;;3.67;2.50;;;;;;;0.84;66.41;101723.34;2095901;28;20158;-71
2021/12/13 05:15:23;;;;;;;2.75;2.03;;;;;;;1.41;66.27;101812.06;2089670;28;20178;-69
2021/12/13 05:16:50;;;;;;;2.85;2.08;;;;;;;1.48;66.36;101805.97;2088963;28;20168;-67
2021/12/13 05:17:53;;;;;;;3.92;2.10;;;;;;;1.49;66.43;101805.59;2093725;28;20172;-72
2021/12/13 05:18:57;;;;;;;2.58;1.98;;;;;;;1.49;66.11;101804.81;2093961;28;20254;-73
2021/12/13 05:20:09;;;;;;;4.03;1.92;;;;;;;1.55;66.21;101801.47;2088792;28;20184;-72
2021/12/13 05:21:17;;;;;;;3.55;1.92;;;;;;;1.54;65.78;101801.81;2088916;28;20185;-72
2021/12/13 05:22:19;;;;;;;2.40;1.90;;;;;;;1.33;66.29;101771.94;2085646;28;20745;-72
2021/12/13 05:23:22;;;;;;;2.55;1.83;;;;;;;1.61;66.62;101805.53;2083796;28;20598;-72
2021/12/13 05:24:28;;;;;;;3.50;2.47;;;;;;;1.31;66.14;101752.34;2084541;28;20182;-72
2021/12/13 05:25:28;;;;;;;2.85;1.98;;;;;;;1.64;66.49;101807.53;2086966;28;20721;-73
2021/12/13 05:26:43;;;;;;;4.03;2.10;;;;;;;1.58;65.73;101786.28;2086745;28;20298;-71
2021/12/13 05:27:45;;;;;;;2.55;2.00;;;;;;;1.45;65.55;101760.91;2084348;28;20209;-71
2021/12/13 05:28:50;;;;;;;3.05;2.22;;;;;;;1.39;65.75;101761.53;2086333;28;20191;-71
2021/12/13 05:29:52;;;;;;;2.67;2.08;;;;;;;1.74;65.23;101806.22;2079360;28;20467;-72